Portada
METAR-TAF:

METAR-TAF

Aeroports :

Abadan, Iran

latitud: 30-22N, longitud: 048-15E, altitud: 3 m

Observació

L'informe es va fer fa 48 minuts, a les 18:00 UTC
Vent 14 kt del Oest/Nord-Oest
Temperatura 41°C
Humitat 17%
Pressió 992 hPa
Visibilitat 10 km o més
sense núvols per sota de 1500 mi sense presència de cumulonimbus.

METAR: OIAA 121800Z 29014KT CAVOK 41/11 Q0992

Hora: 23:18 (18:48 UTC)

Pronòstic

L'informe es va fer fa 1 hora i 18 minuts, a les 17:30 UTC
Pronòstic vàlid del 12 a les 18 UTC al 13 a les 24 UTC
Vent 8 kt del Oest
Visibilitat: 7000 m
Temporalment
l' 13 a les 07 UTC al 13 a les 17 UTC
Vent 26 kt del Nord-Oest

TAF: OIAA 121730Z 1218/1324 28008KT 7000 NSC TEMPO 1307/1317 32026KT

Observacions i pronòstics meteorològics de més de 4000 aeroports (METAR i TAF).

Les estacions disponibles són els punts grocs i vermells al mapa.

Posi el ratolí al punt desitjat per veure el nom de l'estació.

Feu clic per veure les observacions i els pronòstics meteorològics.

Per canviar el mapa: feu clic els botons verds amb una creu de color negre per apropar; al botó verd amb un guió per allunyar la imatge; o en les fletxes verdes per a mapes adjacents.


METAR-TAF: